BVX1SD TBPB-TTPP
Flight info
| Callsign | BVX1SD |
|---|---|
| Flight time | N/A |
| Altitude | 22000 |
| Route | BGI UR515 POS |
| Aircraft | A388/J-SADE2E3FGHIJ3J4J5M1RWXY/LB1D1 |
Departure
| Time | 2026-04-28 17:05 |
|---|---|
| Airport | Grantley Adams International Airport (TBPB) |
Arrival
| Time | N/A |
|---|---|
| Airport | Piarco International Airport (TTPP) |
| Time | Latitude | Longitude | Altitude | Speed | Heading |
|---|---|---|---|---|---|
| 2026-04-28 16:35 | 13.07861 | -59.48747 | 171 ft | 0 kts | 346° |
| 2026-04-28 16:45 | 13.07860 | -59.48747 | 171 ft | 0 kts | 346° |
| 2026-04-28 16:51 | 13.07854 | -59.48745 | 169 ft | 4 kts | 346° |
| 2026-04-28 16:51 | 13.07832 | -59.48739 | 170 ft | 4 kts | 340° |
| 2026-04-28 16:51 | 13.07809 | -59.48726 | 169 ft | 4 kts | 311° |
| 2026-04-28 16:52 | 13.07796 | -59.48703 | 169 ft | 4 kts | 282° |
| 2026-04-28 16:52 | 13.07794 | -59.48676 | 169 ft | 4 kts | 264° |
| 2026-04-28 16:52 | 13.07798 | -59.48652 | 169 ft | 1 kts | 256° |
| 2026-04-28 16:52 | 13.07798 | -59.48651 | 169 ft | 1 kts | 256° |
| 2026-04-28 16:58 | 13.07791 | -59.48677 | 169 ft | 7 kts | 256° |
| 2026-04-28 16:58 | 13.07775 | -59.48735 | 169 ft | 10 kts | 240° |
| 2026-04-28 16:59 | 13.07733 | -59.48798 | 169 ft | 12 kts | 250° |
| 2026-04-28 16:59 | 13.07710 | -59.48889 | 169 ft | 15 kts | 255° |
| 2026-04-28 16:59 | 13.07681 | -59.49003 | 169 ft | 18 kts | 256° |
| 2026-04-28 16:59 | 13.07648 | -59.49138 | 169 ft | 21 kts | 256° |
| 2026-04-28 17:00 | 13.07611 | -59.49290 | 169 ft | 23 kts | 256° |
| 2026-04-28 17:00 | 13.07570 | -59.49454 | 169 ft | 25 kts | 256° |
| 2026-04-28 17:00 | 13.07531 | -59.49614 | 169 ft | 19 kts | 256° |
| 2026-04-28 17:00 | 13.07497 | -59.49754 | 169 ft | 21 kts | 256° |
| 2026-04-28 17:01 | 13.07458 | -59.49911 | 169 ft | 24 kts | 256° |
| 2026-04-28 17:01 | 13.07417 | -59.50079 | 169 ft | 23 kts | 256° |
| 2026-04-28 17:01 | 13.07376 | -59.50247 | 169 ft | 22 kts | 256° |
| 2026-04-28 17:01 | 13.07338 | -59.50399 | 169 ft | 18 kts | 256° |
| 2026-04-28 17:02 | 13.07318 | -59.50483 | 169 ft | 11 kts | 256° |
| 2026-04-28 17:02 | 13.07295 | -59.50573 | 169 ft | 14 kts | 256° |
| 2026-04-28 17:02 | 13.07270 | -59.50675 | 168 ft | 10 kts | 256° |
| 2026-04-28 17:02 | 13.07246 | -59.50742 | 168 ft | 8 kts | 221° |
| 2026-04-28 17:03 | 13.07146 | -59.50724 | 168 ft | 7 kts | 158° |
| 2026-04-28 17:03 | 13.07106 | -59.50707 | 169 ft | 4 kts | 141° |
| 2026-04-28 17:03 | 13.07099 | -59.50693 | 169 ft | 2 kts | 94° |
| 2026-04-28 17:04 | 13.07138 | -59.50533 | 169 ft | 51 kts | 75° |
| 2026-04-28 17:04 | 13.07297 | -59.49883 | 171 ft | 131 kts | 75° |
| 2026-04-28 17:05 | 13.07874 | -59.47663 | 897 ft | 169 kts | 78° |
| 2026-04-28 17:05 | 13.08185 | -59.46478 | 1564 ft | 174 kts | 77° |
| 2026-04-28 17:05 | 13.08492 | -59.45247 | 2000 ft | 183 kts | 79° |
| 2026-04-28 17:06 | 13.07987 | -59.42395 | 2765 ft | 232 kts | 118° |
| 2026-04-28 17:06 | 13.06950 | -59.41113 | 3544 ft | 238 kts | 137° |
| 2026-04-28 17:06 | 13.04188 | -59.39489 | 5637 ft | 231 kts | 158° |
| 2026-04-28 17:07 | 13.02588 | -59.39139 | 6225 ft | 244 kts | 174° |
| 2026-04-28 17:07 | 13.00869 | -59.39428 | 6949 ft | 257 kts | 198° |
| 2026-04-28 17:07 | 12.99361 | -59.40395 | 7793 ft | 262 kts | 221° |
| 2026-04-28 17:07 | 12.98244 | -59.41889 | 8562 ft | 269 kts | 241° |
| 2026-04-28 17:08 | 12.97427 | -59.43637 | 9223 ft | 274 kts | 244° |
| 2026-04-28 17:08 | 12.96595 | -59.45434 | 9862 ft | 283 kts | 244° |
| 2026-04-28 17:08 | 12.95728 | -59.47277 | 10440 ft | 291 kts | 244° |
| 2026-04-28 17:08 | 12.94824 | -59.49199 | 10832 ft | 308 kts | 244° |
| 2026-04-28 17:09 | 12.93856 | -59.51261 | 10987 ft | 332 kts | 244° |
| 2026-04-28 17:09 | 12.92829 | -59.53445 | 11007 ft | 356 kts | 244° |
| 2026-04-28 17:09 | 12.91731 | -59.55768 | 11011 ft | 365 kts | 242° |
| 2026-04-28 17:09 | 12.90354 | -59.57967 | 11009 ft | 367 kts | 230° |
| 2026-04-28 17:10 | 12.88619 | -59.59871 | 11017 ft | 365 kts | 224° |
| 2026-04-28 17:10 | 12.87168 | -59.61361 | 11020 ft | 365 kts | 224° |